sensor_id;sensor_type;location;lat;lon;timestamp;P1;durP1;ratioP1;P2;durP2;ratioP2
20454;SDS011;10386;54.314;10.022;2023-09-07T00:00:39;6.05;;;4.50;;
20454;SDS011;10386;54.314;10.022;2023-09-07T00:03:06;5.88;;;4.15;;
20454;SDS011;10386;54.314;10.022;2023-09-07T00:05:34;5.68;;;4.20;;
20454;SDS011;10386;54.314;10.022;2023-09-07T00:08:02;6.18;;;4.07;;
20454;SDS011;10386;54.314;10.022;2023-09-07T00:10:29;6.93;;;4.80;;
20454;SDS011;10386;54.314;10.022;2023-09-07T00:12:57;8.32;;;4.32;;
20454;SDS011;10386;54.314;10.022;2023-09-07T00:15:24;5.05;;;4.55;;
20454;SDS011;10386;54.314;10.022;2023-09-07T00:17:52;4.78;;;3.95;;
20454;SDS011;10386;54.314;10.022;2023-09-07T00:20:21;8.70;;;4.47;;
20454;SDS011;10386;54.314;10.022;2023-09-07T00:22:49;4.40;;;3.85;;
20454;SDS011;10386;54.314;10.022;2023-09-07T00:25:16;5.72;;;4.07;;
20454;SDS011;10386;54.314;10.022;2023-09-07T00:27:43;5.93;;;4.22;;
20454;SDS011;10386;54.314;10.022;2023-09-07T00:30:11;4.55;;;4.00;;
20454;SDS011;10386;54.314;10.022;2023-09-07T00:32:38;7.30;;;4.38;;
20454;SDS011;10386;54.314;10.022;2023-09-07T00:35:07;7.82;;;4.75;;
20454;SDS011;10386;54.314;10.022;2023-09-07T00:37:35;5.97;;;4.28;;
20454;SDS011;10386;54.314;10.022;2023-09-07T00:40:02;7.10;;;4.10;;
20454;SDS011;10386;54.314;10.022;2023-09-07T00:42:30;5.70;;;4.40;;
20454;SDS011;10386;54.314;10.022;2023-09-07T00:44:58;4.70;;;4.22;;
20454;SDS011;10386;54.314;10.022;2023-09-07T00:47:25;8.77;;;3.97;;
20454;SDS011;10386;54.314;10.022;2023-09-07T00:49:53;5.13;;;4.22;;
20454;SDS011;10386;54.314;10.022;2023-09-07T00:52:21;6.77;;;4.53;;
20454;SDS011;10386;54.314;10.022;2023-09-07T00:54:49;5.03;;;4.13;;
20454;SDS011;10386;54.314;10.022;2023-09-07T00:57:16;6.60;;;4.50;;
20454;SDS011;10386;54.314;10.022;2023-09-07T00:59:45;4.87;;;4.30;;
20454;SDS011;10386;54.314;10.022;2023-09-07T01:02:13;6.67;;;4.30;;
20454;SDS011;10386;54.314;10.022;2023-09-07T01:04:41;5.10;;;4.60;;
20454;SDS011;10386;54.314;10.022;2023-09-07T01:07:11;8.55;;;4.72;;
20454;SDS011;10386;54.314;10.022;2023-09-07T01:09:45;7.30;;;4.57;;
20454;SDS011;10386;54.314;10.022;2023-09-07T01:12:16;6.43;;;4.80;;
20454;SDS011;10386;54.314;10.022;2023-09-07T01:14:43;4.63;;;4.20;;
20454;SDS011;10386;54.314;10.022;2023-09-07T01:17:11;10.17;;;4.87;;
20454;SDS011;10386;54.314;10.022;2023-09-07T01:19:40;7.77;;;4.50;;
20454;SDS011;10386;54.314;10.022;2023-09-07T01:22:08;5.03;;;4.37;;
20454;SDS011;10386;54.314;10.022;2023-09-07T01:24:37;6.93;;;4.57;;
20454;SDS011;10386;54.314;10.022;2023-09-07T01:27:06;7.27;;;4.43;;
20454;SDS011;10386;54.314;10.022;2023-09-07T01:29:34;7.40;;;4.47;;
20454;SDS011;10386;54.314;10.022;2023-09-07T01:32:04;6.00;;;4.57;;
20454;SDS011;10386;54.314;10.022;2023-09-07T01:34:32;5.73;;;4.63;;
20454;SDS011;10386;54.314;10.022;2023-09-07T01:36:59;8.80;;;4.40;;
20454;SDS011;10386;54.314;10.022;2023-09-07T01:39:26;4.70;;;4.17;;
20454;SDS011;10386;54.314;10.022;2023-09-07T01:41:54;5.87;;;4.43;;
20454;SDS011;10386;54.314;10.022;2023-09-07T01:44:21;5.87;;;4.47;;
20454;SDS011;10386;54.314;10.022;2023-09-07T01:46:48;9.77;;;4.57;;
20454;SDS011;10386;54.314;10.022;2023-09-07T01:49:16;5.90;;;4.63;;
20454;SDS011;10386;54.314;10.022;2023-09-07T01:51:44;6.60;;;4.70;;
20454;SDS011;10386;54.314;10.022;2023-09-07T01:54:11;5.53;;;4.33;;
20454;SDS011;10386;54.314;10.022;2023-09-07T01:56:40;5.50;;;4.63;;
20454;SDS011;10386;54.314;10.022;2023-09-07T01:59:08;5.30;;;4.30;;
20454;SDS011;10386;54.314;10.022;2023-09-07T02:01:35;5.50;;;4.10;;
20454;SDS011;10386;54.314;10.022;2023-09-07T02:04:04;7.23;;;4.60;;
20454;SDS011;10386;54.314;10.022;2023-09-07T02:06:32;6.90;;;4.70;;
20454;SDS011;10386;54.314;10.022;2023-09-07T02:09:00;5.30;;;4.80;;
20454;SDS011;10386;54.314;10.022;2023-09-07T02:11:31;6.30;;;5.03;;
20454;SDS011;10386;54.314;10.022;2023-09-07T02:13:59;6.83;;;4.77;;
20454;SDS011;10386;54.314;10.022;2023-09-07T02:16:27;6.70;;;4.87;;
20454;SDS011;10386;54.314;10.022;2023-09-07T02:19:02;6.63;;;4.90;;
20454;SDS011;10386;54.314;10.022;2023-09-07T02:21:30;5.90;;;5.30;;
20454;SDS011;10386;54.314;10.022;2023-09-07T02:23:58;9.33;;;4.80;;
20454;SDS011;10386;54.314;10.022;2023-09-07T02:26:25;5.93;;;4.67;;
20454;SDS011;10386;54.314;10.022;2023-09-07T02:28:55;7.17;;;4.70;;
20454;SDS011;10386;54.314;10.022;2023-09-07T02:31:23;5.83;;;5.07;;
20454;SDS011;10386;54.314;10.022;2023-09-07T02:33:50;10.67;;;4.80;;
20454;SDS011;10386;54.314;10.022;2023-09-07T02:36:18;6.20;;;4.43;;
20454;SDS011;10386;54.314;10.022;2023-09-07T02:38:45;5.33;;;4.83;;
20454;SDS011;10386;54.314;10.022;2023-09-07T02:41:16;5.80;;;4.53;;
20454;SDS011;10386;54.314;10.022;2023-09-07T02:43:44;9.07;;;5.00;;
20454;SDS011;10386;54.314;10.022;2023-09-07T02:46:11;5.43;;;4.43;;
20454;SDS011;10386;54.314;10.022;2023-09-07T02:48:39;6.20;;;4.60;;
20454;SDS011;10386;54.314;10.022;2023-09-07T02:51:06;5.30;;;4.80;;
20454;SDS011;10386;54.314;10.022;2023-09-07T02:53:33;5.93;;;4.40;;
20454;SDS011;10386;54.314;10.022;2023-09-07T02:56:01;5.93;;;4.60;;
20454;SDS011;10386;54.314;10.022;2023-09-07T02:58:31;8.70;;;4.90;;
20454;SDS011;10386;54.314;10.022;2023-09-07T03:01:00;7.23;;;4.80;;
20454;SDS011;10386;54.314;10.022;2023-09-07T03:03:33;5.27;;;4.20;;
20454;SDS011;10386;54.314;10.022;2023-09-07T03:06:10;6.07;;;4.63;;
20454;SDS011;10386;54.314;10.022;2023-09-07T03:08:39;7.00;;;4.90;;
20454;SDS011;10386;54.314;10.022;2023-09-07T03:11:07;5.83;;;4.90;;
20454;SDS011;10386;54.314;10.022;2023-09-07T03:13:35;8.70;;;5.10;;
20454;SDS011;10386;54.314;10.022;2023-09-07T03:16:03;5.57;;;5.03;;
20454;SDS011;10386;54.314;10.022;2023-09-07T03:18:31;5.60;;;5.00;;
20454;SDS011;10386;54.314;10.022;2023-09-07T03:21:00;6.47;;;4.53;;
20454;SDS011;10386;54.314;10.022;2023-09-07T03:23:30;5.20;;;4.70;;
20454;SDS011;10386;54.314;10.022;2023-09-07T03:25:59;7.40;;;4.50;;
20454;SDS011;10386;54.314;10.022;2023-09-07T03:28:27;6.83;;;4.90;;
20454;SDS011;10386;54.314;10.022;2023-09-07T03:30:55;6.50;;;4.70;;
20454;SDS011;10386;54.314;10.022;2023-09-07T03:33:22;9.63;;;4.47;;
20454;SDS011;10386;54.314;10.022;2023-09-07T03:35:49;9.63;;;5.27;;
20454;SDS011;10386;54.314;10.022;2023-09-07T03:38:18;7.27;;;4.30;;
20454;SDS011;10386;54.314;10.022;2023-09-07T03:40:46;5.40;;;4.47;;
20454;SDS011;10386;54.314;10.022;2023-09-07T03:43:13;7.43;;;5.10;;
20454;SDS011;10386;54.314;10.022;2023-09-07T03:45:41;6.87;;;4.93;;
20454;SDS011;10386;54.314;10.022;2023-09-07T03:48:08;6.60;;;5.33;;
20454;SDS011;10386;54.314;10.022;2023-09-07T03:50:37;6.93;;;4.77;;
20454;SDS011;10386;54.314;10.022;2023-09-07T03:53:04;5.07;;;4.40;;
20454;SDS011;10386;54.314;10.022;2023-09-07T03:55:39;5.43;;;4.60;;
20454;SDS011;10386;54.314;10.022;2023-09-07T03:58:10;6.47;;;4.63;;
20454;SDS011;10386;54.314;10.022;2023-09-07T04:00:38;6.93;;;4.30;;
20454;SDS011;10386;54.314;10.022;2023-09-07T04:03:11;9.30;;;4.87;;
20454;SDS011;10386;54.314;10.022;2023-09-07T04:05:39;4.67;;;4.27;;
20454;SDS011;10386;54.314;10.022;2023-09-07T04:08:06;5.47;;;4.70;;
20454;SDS011;10386;54.314;10.022;2023-09-07T04:10:36;8.10;;;5.17;;
20454;SDS011;10386;54.314;10.022;2023-09-07T04:13:04;8.97;;;5.07;;
20454;SDS011;10386;54.314;10.022;2023-09-07T04:15:42;5.90;;;4.63;;
20454;SDS011;10386;54.314;10.022;2023-09-07T04:18:11;6.77;;;5.00;;
20454;SDS011;10386;54.314;10.022;2023-09-07T04:20:44;7.17;;;4.63;;
20454;SDS011;10386;54.314;10.022;2023-09-07T04:23:12;5.10;;;4.60;;
20454;SDS011;10386;54.314;10.022;2023-09-07T04:25:40;7.33;;;5.00;;
20454;SDS011;10386;54.314;10.022;2023-09-07T04:28:07;8.43;;;4.90;;
20454;SDS011;10386;54.314;10.022;2023-09-07T04:30:39;4.67;;;4.20;;
20454;SDS011;10386;54.314;10.022;2023-09-07T04:33:07;6.57;;;4.10;;
20454;SDS011;10386;54.314;10.022;2023-09-07T04:35:34;5.97;;;4.57;;
20454;SDS011;10386;54.314;10.022;2023-09-07T04:38:02;5.17;;;4.67;;
20454;SDS011;10386;54.314;10.022;2023-09-07T04:40:29;5.50;;;4.60;;
20454;SDS011;10386;54.314;10.022;2023-09-07T04:42:56;5.47;;;4.93;;
20454;SDS011;10386;54.314;10.022;2023-09-07T04:45:23;7.37;;;4.93;;
20454;SDS011;10386;54.314;10.022;2023-09-07T04:47:51;8.20;;;4.97;;
20454;SDS011;10386;54.314;10.022;2023-09-07T04:50:18;6.07;;;4.93;;
20454;SDS011;10386;54.314;10.022;2023-09-07T04:52:45;7.27;;;4.73;;
20454;SDS011;10386;54.314;10.022;2023-09-07T04:55:13;5.67;;;4.90;;
20454;SDS011;10386;54.314;10.022;2023-09-07T04:57:40;5.33;;;4.47;;
20454;SDS011;10386;54.314;10.022;2023-09-07T05:00:07;5.87;;;4.70;;
20454;SDS011;10386;54.314;10.022;2023-09-07T05:02:36;7.17;;;5.30;;
20454;SDS011;10386;54.314;10.022;2023-09-07T05:05:07;5.90;;;5.23;;
20454;SDS011;10386;54.314;10.022;2023-09-07T05:07:38;6.90;;;4.77;;
20454;SDS011;10386;54.314;10.022;2023-09-07T05:10:05;7.07;;;5.40;;
20454;SDS011;10386;54.314;10.022;2023-09-07T05:12:35;7.10;;;5.40;;
20454;SDS011;10386;54.314;10.022;2023-09-07T05:15:02;8.20;;;4.63;;
20454;SDS011;10386;54.314;10.022;2023-09-07T05:17:32;5.90;;;5.30;;
20454;SDS011;10386;54.314;10.022;2023-09-07T05:20:00;5.43;;;4.80;;
20454;SDS011;10386;54.314;10.022;2023-09-07T05:22:27;6.00;;;4.80;;
20454;SDS011;10386;54.314;10.022;2023-09-07T05:24:55;9.70;;;5.50;;
20454;SDS011;10386;54.314;10.022;2023-09-07T05:27:22;6.77;;;4.70;;
20454;SDS011;10386;54.314;10.022;2023-09-07T05:29:49;5.73;;;4.90;;
20454;SDS011;10386;54.314;10.022;2023-09-07T05:32:16;7.93;;;5.37;;
20454;SDS011;10386;54.314;10.022;2023-09-07T05:34:43;10.57;;;6.10;;
20454;SDS011;10386;54.314;10.022;2023-09-07T05:37:10;8.83;;;6.00;;
20454;SDS011;10386;54.314;10.022;2023-09-07T05:39:37;7.17;;;5.20;;
20454;SDS011;10386;54.314;10.022;2023-09-07T05:42:04;10.73;;;6.10;;
20454;SDS011;10386;54.314;10.022;2023-09-07T05:44:31;9.00;;;6.10;;
20454;SDS011;10386;54.314;10.022;2023-09-07T05:47:00;9.07;;;5.43;;
20454;SDS011;10386;54.314;10.022;2023-09-07T05:49:29;9.07;;;7.03;;
20454;SDS011;10386;54.314;10.022;2023-09-07T05:51:56;9.13;;;6.20;;
20454;SDS011;10386;54.314;10.022;2023-09-07T05:54:23;9.20;;;6.70;;
20454;SDS011;10386;54.314;10.022;2023-09-07T05:56:50;10.20;;;6.17;;
20454;SDS011;10386;54.314;10.022;2023-09-07T05:59:17;9.37;;;6.83;;
20454;SDS011;10386;54.314;10.022;2023-09-07T06:01:45;9.87;;;6.43;;
20454;SDS011;10386;54.314;10.022;2023-09-07T06:04:12;12.70;;;6.63;;
20454;SDS011;10386;54.314;10.022;2023-09-07T06:06:39;9.87;;;6.63;;
20454;SDS011;10386;54.314;10.022;2023-09-07T06:09:06;11.20;;;6.50;;
20454;SDS011;10386;54.314;10.022;2023-09-07T06:11:33;13.60;;;6.87;;
20454;SDS011;10386;54.314;10.022;2023-09-07T06:14:01;13.73;;;6.13;;
20454;SDS011;10386;54.314;10.022;2023-09-07T06:16:29;8.20;;;4.93;;
20454;SDS011;10386;54.314;10.022;2023-09-07T06:18:56;6.63;;;4.72;;
20454;SDS011;10386;54.314;10.022;2023-09-07T06:21:24;6.28;;;4.82;;
20454;SDS011;10386;54.314;10.022;2023-09-07T06:23:50;8.10;;;5.07;;
20454;SDS011;10386;54.314;10.022;2023-09-07T06:26:17;7.65;;;4.47;;
20454;SDS011;10386;54.314;10.022;2023-09-07T06:28:45;9.73;;;4.53;;
20454;SDS011;10386;54.314;10.022;2023-09-07T06:31:14;6.13;;;4.03;;
20454;SDS011;10386;54.314;10.022;2023-09-07T06:33:44;14.52;;;4.40;;
20454;SDS011;10386;54.314;10.022;2023-09-07T06:36:12;6.50;;;4.90;;
20454;SDS011;10386;54.314;10.022;2023-09-07T06:38:39;8.15;;;4.40;;
20454;SDS011;10386;54.314;10.022;2023-09-07T06:41:06;5.13;;;4.15;;
20454;SDS011;10386;54.314;10.022;2023-09-07T06:43:34;6.82;;;4.50;;
20454;SDS011;10386;54.314;10.022;2023-09-07T06:46:02;5.35;;;3.72;;
20454;SDS011;10386;54.314;10.022;2023-09-07T06:48:32;6.95;;;4.38;;
20454;SDS011;10386;54.314;10.022;2023-09-07T06:51:05;5.28;;;4.40;;
20454;SDS011;10386;54.314;10.022;2023-09-07T06:53:33;5.22;;;4.32;;
20454;SDS011;10386;54.314;10.022;2023-09-07T06:56:20;7.30;;;4.80;;
20454;SDS011;10386;54.314;10.022;2023-09-07T06:58:47;5.47;;;4.18;;
20454;SDS011;10386;54.314;10.022;2023-09-07T07:01:14;6.22;;;4.20;;
20454;SDS011;10386;54.314;10.022;2023-09-07T07:03:41;7.18;;;4.32;;
20454;SDS011;10386;54.314;10.022;2023-09-07T07:06:08;5.63;;;4.30;;
20454;SDS011;10386;54.314;10.022;2023-09-07T07:08:35;7.25;;;4.55;;
20454;SDS011;10386;54.314;10.022;2023-09-07T07:11:02;7.05;;;4.90;;
20454;SDS011;10386;54.314;10.022;2023-09-07T07:13:29;7.55;;;4.30;;
20454;SDS011;10386;54.314;10.022;2023-09-07T07:15:56;5.90;;;4.50;;
20454;SDS011;10386;54.314;10.022;2023-09-07T07:18:23;5.97;;;4.68;;
20454;SDS011;10386;54.314;10.022;2023-09-07T07:20:50;7.63;;;5.10;;
20454;SDS011;10386;54.314;10.022;2023-09-07T07:23:17;7.20;;;4.82;;
20454;SDS011;10386;54.314;10.022;2023-09-07T07:25:44;8.20;;;4.75;;
20454;SDS011;10386;54.314;10.022;2023-09-07T07:28:11;5.72;;;4.20;;
20454;SDS011;10386;54.314;10.022;2023-09-07T07:30:38;5.95;;;4.32;;
20454;SDS011;10386;54.314;10.022;2023-09-07T07:33:09;8.13;;;3.97;;
20454;SDS011;10386;54.314;10.022;2023-09-07T07:35:38;7.05;;;4.63;;
20454;SDS011;10386;54.314;10.022;2023-09-07T07:38:05;5.25;;;4.20;;
20454;SDS011;10386;54.314;10.022;2023-09-07T07:40:35;6.93;;;4.15;;
20454;SDS011;10386;54.314;10.022;2023-09-07T07:43:02;6.93;;;4.15;;
20454;SDS011;10386;54.314;10.022;2023-09-07T07:45:29;6.07;;;4.38;;
20454;SDS011;10386;54.314;10.022;2023-09-07T07:47:56;7.60;;;4.40;;
20454;SDS011;10386;54.314;10.022;2023-09-07T07:50:23;5.72;;;4.40;;
20454;SDS011;10386;54.314;10.022;2023-09-07T07:52:50;6.78;;;4.70;;
20454;SDS011;10386;54.314;10.022;2023-09-07T07:55:17;6.78;;;4.47;;
20454;SDS011;10386;54.314;10.022;2023-09-07T07:57:44;4.47;;;3.95;;
20454;SDS011;10386;54.314;10.022;2023-09-07T08:00:11;5.28;;;4.43;;
20454;SDS011;10386;54.314;10.022;2023-09-07T08:02:39;5.63;;;4.45;;
20454;SDS011;10386;54.314;10.022;2023-09-07T08:05:06;6.80;;;3.92;;
20454;SDS011;10386;54.314;10.022;2023-09-07T08:07:33;7.93;;;4.50;;
20454;SDS011;10386;54.314;10.022;2023-09-07T08:10:00;8.50;;;4.60;;
20454;SDS011;10386;54.314;10.022;2023-09-07T08:12:27;6.05;;;4.18;;
20454;SDS011;10386;54.314;10.022;2023-09-07T08:14:54;5.95;;;4.25;;
20454;SDS011;10386;54.314;10.022;2023-09-07T08:17:24;6.65;;;4.13;;
20454;SDS011;10386;54.314;10.022;2023-09-07T08:19:52;8.75;;;4.13;;
20454;SDS011;10386;54.314;10.022;2023-09-07T08:22:23;8.25;;;4.22;;
20454;SDS011;10386;54.314;10.022;2023-09-07T08:24:51;7.20;;;4.28;;
20454;SDS011;10386;54.314;10.022;2023-09-07T08:27:19;4.45;;;4.00;;
20454;SDS011;10386;54.314;10.022;2023-09-07T08:29:49;6.40;;;4.10;;
20454;SDS011;10386;54.314;10.022;2023-09-07T08:32:18;7.43;;;4.55;;
20454;SDS011;10386;54.314;10.022;2023-09-07T08:34:47;9.82;;;4.07;;
20454;SDS011;10386;54.314;10.022;2023-09-07T08:37:15;6.78;;;3.75;;
20454;SDS011;10386;54.314;10.022;2023-09-07T08:39:43;7.45;;;3.90;;
20454;SDS011;10386;54.314;10.022;2023-09-07T08:42:11;7.22;;;4.22;;
20454;SDS011;10386;54.314;10.022;2023-09-07T08:44:40;5.95;;;4.65;;
20454;SDS011;10386;54.314;10.022;2023-09-07T08:47:10;6.57;;;4.15;;
20454;SDS011;10386;54.314;10.022;2023-09-07T08:49:39;6.00;;;3.88;;
20454;SDS011;10386;54.314;10.022;2023-09-07T08:52:08;4.57;;;3.72;;
20454;SDS011;10386;54.314;10.022;2023-09-07T08:54:37;7.80;;;4.25;;
20454;SDS011;10386;54.314;10.022;2023-09-07T08:57:06;5.40;;;4.18;;
20454;SDS011;10386;54.314;10.022;2023-09-07T08:59:34;6.18;;;3.70;;
20454;SDS011;10386;54.314;10.022;2023-09-07T09:02:10;5.55;;;3.97;;
20454;SDS011;10386;54.314;10.022;2023-09-07T09:04:38;6.65;;;4.43;;
20454;SDS011;10386;54.314;10.022;2023-09-07T09:07:06;4.72;;;4.32;;
20454;SDS011;10386;54.314;10.022;2023-09-07T09:09:36;5.70;;;4.03;;
20454;SDS011;10386;54.314;10.022;2023-09-07T09:12:08;4.25;;;3.83;;
20454;SDS011;10386;54.314;10.022;2023-09-07T09:14:38;5.18;;;4.00;;
20454;SDS011;10386;54.314;10.022;2023-09-07T09:17:13;6.85;;;3.80;;
20454;SDS011;10386;54.314;10.022;2023-09-07T09:19:42;4.32;;;3.75;;
20454;SDS011;10386;54.314;10.022;2023-09-07T09:22:11;5.03;;;3.80;;
20454;SDS011;10386;54.314;10.022;2023-09-07T09:24:40;4.72;;;3.70;;
20454;SDS011;10386;54.314;10.022;2023-09-07T09:27:08;4.55;;;3.60;;
20454;SDS011;10386;54.314;10.022;2023-09-07T09:29:36;5.82;;;3.97;;
20454;SDS011;10386;54.314;10.022;2023-09-07T09:32:05;6.72;;;3.70;;
20454;SDS011;10386;54.314;10.022;2023-09-07T09:34:33;5.05;;;3.65;;
20454;SDS011;10386;54.314;10.022;2023-09-07T09:37:03;5.93;;;3.97;;
20454;SDS011;10386;54.314;10.022;2023-09-07T09:39:31;7.22;;;3.90;;
20454;SDS011;10386;54.314;10.022;2023-09-07T09:41:59;5.63;;;3.50;;
20454;SDS011;10386;54.314;10.022;2023-09-07T09:44:27;5.72;;;4.15;;
20454;SDS011;10386;54.314;10.022;2023-09-07T09:46:56;5.72;;;3.65;;
20454;SDS011;10386;54.314;10.022;2023-09-07T09:49:26;4.25;;;3.50;;
20454;SDS011;10386;54.314;10.022;2023-09-07T09:51:56;5.85;;;3.60;;
20454;SDS011;10386;54.314;10.022;2023-09-07T09:54:25;4.88;;;3.80;;
20454;SDS011;10386;54.314;10.022;2023-09-07T09:56:54;5.53;;;3.85;;
20454;SDS011;10386;54.314;10.022;2023-09-07T09:59:22;4.22;;;3.47;;
20454;SDS011;10386;54.314;10.022;2023-09-07T10:01:49;5.63;;;3.58;;
20454;SDS011;10386;54.314;10.022;2023-09-07T10:04:19;4.80;;;4.00;;
20454;SDS011;10386;54.314;10.022;2023-09-07T10:06:59;5.97;;;3.83;;
20454;SDS011;10386;54.314;10.022;2023-09-07T10:09:33;4.28;;;3.50;;
20454;SDS011;10386;54.314;10.022;2023-09-07T10:12:03;5.82;;;4.00;;
20454;SDS011;10386;54.314;10.022;2023-09-07T10:14:38;5.93;;;4.00;;
20454;SDS011;10386;54.314;10.022;2023-09-07T10:17:07;6.95;;;3.83;;
20454;SDS011;10386;54.314;10.022;2023-09-07T10:19:37;4.07;;;3.45;;
20454;SDS011;10386;54.314;10.022;2023-09-07T10:22:07;6.95;;;4.00;;
20454;SDS011;10386;54.314;10.022;2023-09-07T10:24:40;5.72;;;3.92;;
20454;SDS011;10386;54.314;10.022;2023-09-07T10:27:43;4.15;;;3.75;;
20454;SDS011;10386;54.314;10.022;2023-09-07T10:30:20;4.13;;;3.70;;
20454;SDS011;10386;54.314;10.022;2023-09-07T10:32:52;5.15;;;3.60;;
20454;SDS011;10386;54.314;10.022;2023-09-07T10:35:21;4.05;;;3.65;;
20454;SDS011;10386;54.314;10.022;2023-09-07T10:37:48;3.72;;;3.33;;
20454;SDS011;10386;54.314;10.022;2023-09-07T10:40:21;3.85;;;3.45;;
20454;SDS011;10386;54.314;10.022;2023-09-07T10:42:49;4.53;;;3.53;;
20454;SDS011;10386;54.314;10.022;2023-09-07T10:45:30;4.57;;;3.28;;
20454;SDS011;10386;54.314;10.022;2023-09-07T10:47:59;4.63;;;3.67;;
20454;SDS011;10386;54.314;10.022;2023-09-07T10:50:27;7.63;;;4.00;;
20454;SDS011;10386;54.314;10.022;2023-09-07T10:52:57;4.75;;;3.45;;
20454;SDS011;10386;54.314;10.022;2023-09-07T10:55:35;4.80;;;3.88;;
20454;SDS011;10386;54.314;10.022;2023-09-07T10:58:08;10.80;;;3.55;;
20454;SDS011;10386;54.314;10.022;2023-09-07T11:00:42;7.32;;;3.60;;
20454;SDS011;10386;54.314;10.022;2023-09-07T11:03:12;4.70;;;4.03;;
20454;SDS011;10386;54.314;10.022;2023-09-07T11:05:42;4.82;;;3.42;;
20454;SDS011;10386;54.314;10.022;2023-09-07T11:08:10;5.13;;;3.67;;
20454;SDS011;10386;54.314;10.022;2023-09-07T11:10:38;4.32;;;3.53;;
20454;SDS011;10386;54.314;10.022;2023-09-07T11:13:06;3.53;;;3.22;;
20454;SDS011;10386;54.314;10.022;2023-09-07T11:15:35;4.07;;;3.20;;
20454;SDS011;10386;54.314;10.022;2023-09-07T11:18:06;4.07;;;3.00;;
20454;SDS011;10386;54.314;10.022;2023-09-07T11:20:37;3.53;;;2.97;;
20454;SDS011;10386;54.314;10.022;2023-09-07T11:23:07;3.78;;;3.42;;
20454;SDS011;10386;54.314;10.022;2023-09-07T11:25:35;5.85;;;3.10;;
20454;SDS011;10386;54.314;10.022;2023-09-07T11:28:07;4.70;;;3.30;;
20454;SDS011;10386;54.314;10.022;2023-09-07T11:30:50;5.35;;;3.55;;
20454;SDS011;10386;54.314;10.022;2023-09-07T11:33:22;3.33;;;3.03;;
20454;SDS011;10386;54.314;10.022;2023-09-07T11:35:50;4.90;;;3.45;;
20454;SDS011;10386;54.314;10.022;2023-09-07T11:38:21;3.85;;;3.10;;
20454;SDS011;10386;54.314;10.022;2023-09-07T11:40:49;3.83;;;3.00;;
20454;SDS011;10386;54.314;10.022;2023-09-07T11:43:17;3.70;;;3.10;;
20454;SDS011;10386;54.314;10.022;2023-09-07T11:45:49;4.75;;;3.22;;
20454;SDS011;10386;54.314;10.022;2023-09-07T11:48:17;5.40;;;3.20;;
20454;SDS011;10386;54.314;10.022;2023-09-07T11:50:44;3.45;;;2.90;;
20454;SDS011;10386;54.314;10.022;2023-09-07T11:53:11;3.75;;;3.10;;
20454;SDS011;10386;54.314;10.022;2023-09-07T11:55:41;5.85;;;3.30;;
20454;SDS011;10386;54.314;10.022;2023-09-07T11:58:10;3.83;;;3.13;;
20454;SDS011;10386;54.314;10.022;2023-09-07T12:00:37;3.53;;;3.15;;
20454;SDS011;10386;54.314;10.022;2023-09-07T12:03:08;3.92;;;3.22;;
20454;SDS011;10386;54.314;10.022;2023-09-07T12:05:36;3.10;;;2.80;;
20454;SDS011;10386;54.314;10.022;2023-09-07T12:08:04;5.35;;;3.10;;
20454;SDS011;10386;54.314;10.022;2023-09-07T12:10:32;5.88;;;3.40;;
20454;SDS011;10386;54.314;10.022;2023-09-07T12:13:00;5.38;;;3.50;;
20454;SDS011;10386;54.314;10.022;2023-09-07T12:15:27;3.65;;;3.22;;
20454;SDS011;10386;54.314;10.022;2023-09-07T12:17:56;5.00;;;3.17;;
20454;SDS011;10386;54.314;10.022;2023-09-07T12:20:24;3.95;;;3.15;;
20454;SDS011;10386;54.314;10.022;2023-09-07T12:22:52;4.55;;;3.42;;
20454;SDS011;10386;54.314;10.022;2023-09-07T12:25:19;5.22;;;3.78;;
20454;SDS011;10386;54.314;10.022;2023-09-07T12:27:48;5.22;;;3.15;;
20454;SDS011;10386;54.314;10.022;2023-09-07T12:30:20;5.93;;;3.20;;
20454;SDS011;10386;54.314;10.022;2023-09-07T12:32:50;3.80;;;3.50;;
20454;SDS011;10386;54.314;10.022;2023-09-07T12:35:19;5.25;;;3.53;;
20454;SDS011;10386;54.314;10.022;2023-09-07T12:37:47;4.32;;;3.60;;
20454;SDS011;10386;54.314;10.022;2023-09-07T12:40:14;3.63;;;3.15;;
20454;SDS011;10386;54.314;10.022;2023-09-07T12:42:44;3.40;;;3.10;;
20454;SDS011;10386;54.314;10.022;2023-09-07T12:45:12;3.60;;;3.30;;
20454;SDS011;10386;54.314;10.022;2023-09-07T12:47:43;4.47;;;3.15;;
20454;SDS011;10386;54.314;10.022;2023-09-07T12:50:16;4.80;;;3.22;;
20454;SDS011;10386;54.314;10.022;2023-09-07T12:52:44;5.32;;;3.17;;
20454;SDS011;10386;54.314;10.022;2023-09-07T12:55:12;3.47;;;3.17;;
20454;SDS011;10386;54.314;10.022;2023-09-07T12:57:39;5.47;;;3.70;;
20454;SDS011;10386;54.314;10.022;2023-09-07T13:00:07;7.40;;;3.65;;
20454;SDS011;10386;54.314;10.022;2023-09-07T13:02:35;6.53;;;3.30;;
20454;SDS011;10386;54.314;10.022;2023-09-07T13:05:02;6.03;;;3.40;;
20454;SDS011;10386;54.314;10.022;2023-09-07T13:07:34;6.38;;;3.38;;
20454;SDS011;10386;54.314;10.022;2023-09-07T13:10:02;5.53;;;3.13;;
20454;SDS011;10386;54.314;10.022;2023-09-07T13:12:31;5.65;;;3.55;;
20454;SDS011;10386;54.314;10.022;2023-09-07T13:15:01;3.85;;;3.15;;
20454;SDS011;10386;54.314;10.022;2023-09-07T13:17:29;4.35;;;3.30;;
20454;SDS011;10386;54.314;10.022;2023-09-07T13:19:56;4.32;;;3.90;;
20454;SDS011;10386;54.314;10.022;2023-09-07T13:22:24;3.53;;;3.22;;
20454;SDS011;10386;54.314;10.022;2023-09-07T13:24:51;7.20;;;3.78;;
20454;SDS011;10386;54.314;10.022;2023-09-07T13:27:19;8.98;;;4.35;;
20454;SDS011;10386;54.314;10.022;2023-09-07T13:29:48;4.97;;;4.18;;
20454;SDS011;10386;54.314;10.022;2023-09-07T13:32:22;3.72;;;3.38;;
20454;SDS011;10386;54.314;10.022;2023-09-07T13:34:50;6.93;;;3.95;;
20454;SDS011;10386;54.314;10.022;2023-09-07T13:37:21;4.50;;;3.75;;
20454;SDS011;10386;54.314;10.022;2023-09-07T13:39:49;4.25;;;3.72;;
20454;SDS011;10386;54.314;10.022;2023-09-07T13:42:16;5.53;;;3.97;;
20454;SDS011;10386;54.314;10.022;2023-09-07T13:44:44;7.32;;;3.83;;
20454;SDS011;10386;54.314;10.022;2023-09-07T13:47:14;6.00;;;3.50;;
20454;SDS011;10386;54.314;10.022;2023-09-07T13:49:42;4.30;;;3.90;;
20454;SDS011;10386;54.314;10.022;2023-09-07T13:52:13;4.18;;;3.60;;
20454;SDS011;10386;54.314;10.022;2023-09-07T13:54:40;6.60;;;4.18;;
20454;SDS011;10386;54.314;10.022;2023-09-07T13:57:07;5.93;;;4.00;;
20454;SDS011;10386;54.314;10.022;2023-09-07T13:59:36;4.72;;;4.07;;
20454;SDS011;10386;54.314;10.022;2023-09-07T14:02:03;6.88;;;3.72;;
20454;SDS011;10386;54.314;10.022;2023-09-07T14:04:31;6.90;;;4.28;;
20454;SDS011;10386;54.314;10.022;2023-09-07T14:07:01;6.32;;;4.13;;
20454;SDS011;10386;54.314;10.022;2023-09-07T14:09:28;8.27;;;4.18;;
20454;SDS011;10386;54.314;10.022;2023-09-07T14:11:56;7.25;;;4.20;;
20454;SDS011;10386;54.314;10.022;2023-09-07T14:14:23;7.07;;;4.30;;
20454;SDS011;10386;54.314;10.022;2023-09-07T14:16:52;8.13;;;3.95;;
20454;SDS011;10386;54.314;10.022;2023-09-07T14:19:23;7.50;;;4.00;;
20454;SDS011;10386;54.314;10.022;2023-09-07T14:21:53;7.63;;;4.32;;
20454;SDS011;10386;54.314;10.022;2023-09-07T14:24:24;4.55;;;3.92;;
20454;SDS011;10386;54.314;10.022;2023-09-07T14:26:51;6.60;;;4.10;;
20454;SDS011;10386;54.314;10.022;2023-09-07T14:29:24;6.05;;;4.57;;
20454;SDS011;10386;54.314;10.022;2023-09-07T14:31:53;5.40;;;4.40;;
20454;SDS011;10386;54.314;10.022;2023-09-07T14:34:22;4.93;;;4.35;;
20454;SDS011;10386;54.314;10.022;2023-09-07T14:36:50;6.80;;;5.00;;
20454;SDS011;10386;54.314;10.022;2023-09-07T14:39:19;7.60;;;5.47;;
20454;SDS011;10386;54.314;10.022;2023-09-07T14:41:51;5.65;;;5.05;;